Weather at Oscura Army Air Field Auxilary Airport [CLOSED]

Public forecast

Using degrees Fahrenheit for public forecast. Weather courtesy of forecast.io.

Closest aviation weather report (METAR) to Oscura Army Air Field Auxilary Airport

Closest report is Sierra Blanca Regional Airport, 32.5 nm (60.2 km) E. Retrieved 2022/01/22 20:15 UTC (19 minutes ago):

KSRR 222015Z AUTO 15010G18KT 10SM CLR 02/M07 A3026 RMK AO2

Closest aviation forecast (TAF) to Oscura Army Air Field Auxilary Airport

Forecast is more than 12 hours old.

Closest forecast is Holloman Air Force Base, 38.5 nm (71.3 km) S. Retrieved 2022-01-22 01:09 UTC (19 hours ago):

TAF KHMN 220100Z 2201/2307 VRB06KT 9999 FEW090 QNH3005INS TX13/2222Z TNM03/2212Z